Time;durP1;ratioP1;P1;durP2;ratioP2;P2;SDS_P1;SDS_P2;PMS_P1;PMS_P2;Temp;Humidity;BMP_temperature;BMP_pressure;BME280_temperature;BME280_humidity;BME280_pressure;Samples;Min_cycle;Max_cycle;Signal;HPM_P1;HPM_P2
2022/10/25 00:00:27;;;;;;;8.43;2.70;;;13.60;99.90;;;;;;5095976;28;20439;-59
2022/10/25 00:02:54;;;;;;;7.10;3.17;;;13.70;99.90;;;;;;5095667;28;20498;-60
2022/10/25 00:05:21;;;;;;;6.23;2.80;;;13.70;99.90;;;;;;5094781;28;20439;-60
2022/10/25 00:07:49;;;;;;;5.30;2.53;;;13.70;99.90;;;;;;5094726;28;20499;-62
2022/10/25 00:10:17;;;;;;;5.53;2.90;;;13.60;76.50;;;;;;5094904;28;20464;-59
2022/10/25 00:12:45;;;;;;;7.63;2.87;;;13.70;62.10;;;;;;5094225;28;20456;-59
2022/10/25 00:15:14;;;;;;;7.63;3.10;;;13.60;1.00;;;;;;5095748;28;20464;-61
2022/10/25 00:17:45;;;;;;;7.03;2.77;;;13.70;1.00;;;;;;5095732;28;20461;-62
2022/10/25 00:20:13;;;;;;;7.70;3.30;;;13.70;1.00;;;;;;5095887;28;20464;-63
2022/10/25 00:22:43;;;;;;;5.60;2.50;;;13.70;1.00;;;;;;5095829;28;20488;-63
2022/10/25 00:25:14;;;;;;;9.30;3.23;;;13.60;1.00;;;;;;5099251;28;20464;-61
2022/10/25 00:27:42;;;;;;;6.83;4.30;;;13.60;1.00;;;;;;5099811;28;20743;-63
2022/10/25 00:30:13;;;;;;;7.50;3.37;;;13.60;1.00;;;;;;5099578;28;20464;-63
2022/10/25 00:32:40;;;;;;;7.00;2.60;;;13.60;99.90;;;;;;5099606;28;20738;-62
2022/10/25 00:35:08;;;;;;;7.83;3.33;;;13.60;99.90;;;;;;5099132;28;20461;-63
2022/10/25 00:37:36;;;;;;;8.10;3.10;;;13.60;99.90;;;;;;5099312;28;20931;-63
2022/10/25 00:40:05;;;;;;;8.67;3.20;;;13.60;99.90;;;;;;5099312;28;20460;-63
2022/10/25 00:42:32;;;;;;;8.70;2.93;;;13.60;99.90;;;;;;5098665;28;20484;-62
2022/10/25 00:45:03;;;;;;;7.73;2.87;;;13.60;1.00;;;;;;5099144;28;20460;-61
2022/10/25 00:47:50;;;;;;;10.53;3.20;;;13.70;99.90;;;;;;5098924;28;20461;-62
2022/10/25 00:50:28;;;;;;;9.20;3.03;;;13.70;1.00;;;;;;5098216;28;20453;-63
2022/10/25 00:53:02;;;;;;;8.00;2.77;;;13.70;1.00;;;;;;5099060;28;20475;-63
2022/10/25 00:55:29;;;;;;;6.67;3.10;;;13.80;99.90;;;;;;5098576;28;20677;-62
2022/10/25 00:58:02;;;;;;;10.40;3.57;;;13.80;1.00;;;;;;5095865;28;20877;-62
2022/10/25 01:00:30;;;;;;;15.40;3.50;;;13.80;99.90;;;;;;5098880;28;20458;-62
2022/10/25 01:02:57;;;;;;;6.33;3.30;;;13.80;1.00;;;;;;5098622;28;20487;-63
2022/10/25 01:05:25;;;;;;;5.87;2.47;;;13.80;1.00;;;;;;5098834;28;20462;-63
2022/10/25 01:07:52;;;;;;;7.43;3.50;;;13.80;99.90;;;;;;5098391;28;20484;-63
2022/10/25 01:10:21;;;;;;;6.43;3.20;;;13.80;99.90;;;;;;5098421;28;20492;-63
2022/10/25 01:12:48;;;;;;;8.80;3.50;;;13.80;91.40;;;;;;5097790;28;20806;-63
2022/10/25 01:15:19;;;;;;;7.10;3.33;;;13.80;1.00;;;;;;5098653;28;20874;-62
2022/10/25 01:17:54;;;;;;;6.63;3.10;;;13.80;1.00;;;;;;5098780;28;20540;-62
2022/10/25 01:21:06;;;;;;;4.87;2.67;;;13.80;99.90;;;;;;5098522;28;20438;-61
2022/10/25 01:24:04;;;;;;;6.20;2.93;;;13.90;99.90;;;;;;5085010;28;20775;-63
2022/10/25 01:26:55;;;;;;;8.63;3.17;;;13.80;99.90;;;;;;5093412;28;20468;-63
2022/10/25 01:29:56;;;;;;;7.63;3.33;;;13.80;99.90;;;;;;5098102;28;20506;-63
2022/10/25 01:32:32;;;;;;;6.23;2.73;;;13.80;99.90;;;;;;5061853;28;20479;-64
2022/10/25 01:35:09;;;;;;;7.57;3.43;;;13.80;1.90;;;;;;5097300;28;20557;-63
2022/10/25 01:37:44;;;;;;;10.40;3.40;;;13.80;1.00;;;;;;5098736;28;20539;-62
2022/10/25 01:40:23;;;;;;;7.40;3.20;;;13.80;1.00;;;;;;5098237;28;20456;-63
2022/10/25 01:43:00;;;;;;;6.53;2.90;;;13.80;1.00;;;;;;5097722;28;20557;-63
2022/10/25 01:45:36;;;;;;;7.47;3.10;;;13.80;11.70;;;;;;5097834;28;20559;-64
2022/10/25 01:48:14;;;;;;;10.50;2.90;;;13.80;1.00;;;;;;5098366;28;20470;-64
2022/10/25 01:50:45;;;;;;;5.13;2.43;;;13.80;1.00;;;;;;5087585;28;20882;-63
2022/10/25 01:53:13;;;;;;;6.13;3.00;;;13.80;1.00;;;;;;5077563;28;20465;-63
2022/10/25 01:55:47;;;;;;;9.80;3.57;;;13.90;99.90;;;;;;5077882;28;20436;-63
2022/10/25 01:58:29;;;;;;;7.03;3.10;;;13.80;99.90;;;;;;5077073;28;20457;-64
2022/10/25 02:01:06;;;;;;;9.53;3.07;;;13.80;99.90;;;;;;5076831;28;20555;-64
2022/10/25 02:03:40;;;;;;;8.53;3.10;;;13.80;99.90;;;;;;5077458;28;20492;-63
2022/10/25 02:06:21;;;;;;;5.33;3.03;;;13.80;99.90;;;;;;5077296;28;20461;-63
2022/10/25 02:08:56;;;;;;;6.87;3.00;;;13.80;99.90;;;;;;5076417;28;20492;-64
2022/10/25 02:11:26;;;;;;;6.27;2.63;;;13.80;99.90;;;;;;5077169;28;20544;-64
2022/10/25 02:14:00;;;;;;;5.57;2.90;;;13.80;99.90;;;;;;5077200;28;20457;-64
2022/10/25 02:16:31;;;;;;;6.93;2.90;;;13.80;99.90;;;;;;5077201;28;20908;-64
2022/10/25 02:19:02;;;;;;;9.77;2.80;;;13.80;99.90;;;;;;5077347;28;20936;-64
2022/10/25 02:21:31;;;;;;;5.00;2.73;;;13.80;99.90;;;;;;5077133;28;20457;-64
2022/10/25 02:24:01;;;;;;;7.13;3.27;;;13.80;99.90;;;;;;5077213;28;20489;-63
2022/10/25 02:26:29;;;;;;;8.07;2.87;;;13.80;1.00;;;;;;5077038;28;20461;-64
2022/10/25 02:29:00;;;;;;;5.93;3.00;;;13.80;99.90;;;;;;5077116;28;20457;-64
2022/10/25 02:31:29;;;;;;;12.53;4.00;;;13.80;99.90;;;;;;5076754;28;20461;-64
2022/10/25 02:33:56;;;;;;;5.47;3.93;;;13.80;99.90;;;;;;5076718;28;20458;-63
2022/10/25 02:36:25;;;;;;;6.13;3.20;;;13.80;99.90;;;;;;5077024;28;20444;-64
2022/10/25 02:38:53;;;;;;;12.17;3.20;;;13.80;99.90;;;;;;5076692;28;20538;-64
2022/10/25 02:41:22;;;;;;;8.30;3.33;;;13.80;99.90;;;;;;5076781;28;20542;-64
2022/10/25 02:43:49;;;;;;;5.40;3.30;;;13.80;99.90;;;;;;5076232;28;20583;-63
2022/10/25 02:46:21;;;;;;;6.30;3.13;;;13.80;99.90;;;;;;5076736;28;20655;-64
2022/10/25 02:48:49;;;;;;;11.10;2.83;;;13.80;99.90;;;;;;5076466;28;20758;-64
2022/10/25 02:51:17;;;;;;;6.60;2.60;;;13.80;99.90;;;;;;5076387;28;20440;-64
2022/10/25 02:53:45;;;;;;;7.03;3.00;;;13.80;99.90;;;;;;5076532;28;20551;-64
2022/10/25 02:56:18;;;;;;;9.80;3.40;;;13.80;99.90;;;;;;5076594;28;20468;-64
2022/10/25 02:58:48;;;;;;;8.37;3.20;;;13.80;99.90;;;;;;5095273;28;20889;-64
2022/10/25 03:01:16;;;;;;;4.50;2.60;;;13.80;86.70;;;;;;5096434;28;20464;-64
2022/10/25 03:03:44;;;;;;;7.43;3.50;;;13.80;99.90;;;;;;5093531;28;20487;-63
2022/10/25 03:06:13;;;;;;;6.30;3.60;;;13.80;99.90;;;;;;5095826;28;20514;-64
2022/10/25 03:08:41;;;;;;;5.93;2.50;;;13.80;99.90;;;;;;5094412;28;21010;-63
2022/10/25 03:11:12;;;;;;;7.70;3.50;;;13.90;99.90;;;;;;5088303;28;20545;-63
2022/10/25 03:13:39;;;;;;;8.00;3.40;;;13.80;87.90;;;;;;5074208;28;20976;-64
2022/10/25 03:16:08;;;;;;;5.03;3.27;;;13.80;99.90;;;;;;5075198;28;20901;-65
2022/10/25 03:18:35;;;;;;;7.00;3.70;;;13.80;99.90;;;;;;5075721;28;20453;-64
2022/10/25 03:21:03;;;;;;;8.37;3.00;;;13.80;99.90;;;;;;5075562;28;20559;-64
2022/10/25 03:23:31;;;;;;;6.40;2.90;;;13.80;99.90;;;;;;5075934;28;20477;-64
2022/10/25 03:25:59;;;;;;;10.77;3.03;;;13.80;99.90;;;;;;5076056;28;20933;-64
2022/10/25 03:28:31;;;;;;;5.20;3.33;;;13.80;98.50;;;;;;5075715;28;20444;-64
2022/10/25 03:30:59;;;;;;;7.27;3.40;;;13.80;99.90;;;;;;5076028;28;20958;-64
2022/10/25 03:33:27;;;;;;;9.03;3.37;;;13.80;99.90;;;;;;5075626;28;20555;-64
2022/10/25 03:35:55;;;;;;;8.13;3.27;;;13.80;99.90;;;;;;5075726;28;20758;-64
2022/10/25 03:38:25;;;;;;;8.53;3.23;;;13.80;99.90;;;;;;5075753;28;20467;-64
2022/10/25 03:40:53;;;;;;;6.60;3.40;;;13.80;99.90;;;;;;5075742;28;20816;-64
2022/10/25 03:43:20;;;;;;;7.30;3.30;;;13.80;99.90;;;;;;5075609;28;20489;-64
2022/10/25 03:45:49;;;;;;;8.80;3.03;;;13.80;99.90;;;;;;5075484;28;20770;-64
2022/10/25 03:48:17;;;;;;;8.90;3.60;;;13.80;99.90;;;;;;5075417;28;20465;-64
2022/10/25 03:50:44;;;;;;;8.43;3.10;;;13.80;99.90;;;;;;5075331;28;20472;-63
2022/10/25 03:53:11;;;;;;;8.60;3.13;;;13.80;99.90;;;;;;5075418;28;20449;-64
2022/10/25 03:55:39;;;;;;;6.47;3.60;;;13.80;91.60;;;;;;5074876;28;20461;-64
2022/10/25 03:58:06;;;;;;;7.13;2.90;;;13.80;99.90;;;;;;5075117;28;20464;-64
2022/10/25 04:00:33;;;;;;;6.40;3.17;;;13.80;99.90;;;;;;5075211;28;20905;-64
2022/10/25 04:03:02;;;;;;;6.23;2.90;;;13.80;99.90;;;;;;5075189;28;20461;-64
2022/10/25 04:05:30;;;;;;;8.80;3.37;;;13.70;99.90;;;;;;5075631;28;20485;-64
2022/10/25 04:08:01;;;;;;;9.73;3.20;;;13.70;99.90;;;;;;5074989;28;20489;-64
2022/10/25 04:10:28;;;;;;;8.73;3.10;;;13.70;99.90;;;;;;5075895;28;20508;-64
2022/10/25 04:12:55;;;;;;;6.03;2.97;;;13.80;99.90;;;;;;5073740;28;20457;-64
2022/10/25 04:15:23;;;;;;;8.20;3.00;;;13.70;92.90;;;;;;5074795;28;20774;-65
2022/10/25 04:17:51;;;;;;;7.10;3.27;;;13.80;94.90;;;;;;5075661;28;20892;-64
2022/10/25 04:20:20;;;;;;;5.43;2.87;;;13.80;56.90;;;;;;5074940;28;20438;-64
2022/10/25 04:22:54;;;;;;;6.73;3.30;;;13.70;99.90;;;;;;5074811;28;20465;-65
2022/10/25 04:25:21;;;;;;;8.73;3.90;;;13.70;99.90;;;;;;5075009;28;20912;-64
2022/10/25 04:27:49;;;;;;;13.83;3.67;;;13.70;59.90;;;;;;5074598;28;20467;-64
2022/10/25 04:30:16;;;;;;;7.77;2.83;;;13.70;31.00;;;;;;5074934;28;20465;-64
2022/10/25 04:32:45;;;;;;;8.50;3.73;;;13.80;18.80;;;;;;5075192;28;20899;-65
2022/10/25 04:35:12;;;;;;;7.73;2.97;;;13.80;1.00;;;;;;5075131;28;20462;-65
2022/10/25 04:37:44;;;;;;;6.70;3.53;;;13.80;1.00;;;;;;5075053;28;20461;-65
2022/10/25 04:40:12;;;;;;;8.60;3.40;;;13.80;1.00;;;;;;5075147;28;20748;-65
2022/10/25 04:42:39;;;;;;;5.23;2.90;;;13.80;1.00;;;;;;5074523;28;20460;-65
2022/10/25 04:45:07;;;;;;;10.17;3.20;;;13.80;1.00;;;;;;5074893;28;20529;-65
2022/10/25 04:47:37;;;;;;;5.50;2.80;;;13.80;1.00;;;;;;5075007;28;20461;-65
2022/10/25 04:50:05;;;;;;;6.23;3.20;;;13.80;1.00;;;;;;5074759;28;20776;-65
2022/10/25 04:52:32;;;;;;;10.40;3.57;;;13.80;1.00;;;;;;5074547;28;20465;-65
2022/10/25 04:55:01;;;;;;;6.03;3.17;;;13.70;1.00;;;;;;5074430;28;20432;-65
2022/10/25 04:57:28;;;;;;;6.20;3.00;;;13.70;11.50;;;;;;5076806;28;20893;-65
2022/10/25 04:59:56;;;;;;;7.00;3.10;;;13.70;33.90;;;;;;5074650;28;20468;-65
2022/10/25 05:02:24;;;;;;;8.73;3.33;;;13.70;38.10;;;;;;5074220;28;20465;-65
2022/10/25 05:04:51;;;;;;;7.47;3.93;;;13.70;73.60;;;;;;5074422;28;20944;-65
2022/10/25 05:07:19;;;;;;;9.97;3.70;;;13.70;55.20;;;;;;5084403;28;20491;-65
2022/10/25 05:09:46;;;;;;;4.80;3.53;;;13.70;99.90;;;;;;5096181;28;20442;-65
2022/10/25 05:12:15;;;;;;;6.63;3.63;;;13.70;99.90;;;;;;5098734;28;20761;-65
2022/10/25 05:14:42;;;;;;;12.80;3.90;;;13.60;99.90;;;;;;5098233;28;20573;-65
2022/10/25 05:17:10;;;;;;;7.47;3.40;;;13.60;99.90;;;;;;5097663;28;20517;-65
2022/10/25 05:19:41;;;;;;;7.43;4.83;;;13.70;29.70;;;;;;5097980;28;20460;-65
2022/10/25 05:22:09;;;;;;;7.03;3.87;;;13.70;1.00;;;;;;5098199;28;20893;-65
2022/10/25 05:24:39;;;;;;;8.10;3.60;;;13.70;1.00;;;;;;5098377;28;20544;-65
2022/10/25 05:27:06;;;;;;;7.40;3.70;;;13.70;1.00;;;;;;5095906;28;20433;-65
2022/10/25 05:29:35;;;;;;;5.40;3.27;;;13.70;1.00;;;;;;5096001;28;20964;-65
2022/10/25 05:32:02;;;;;;;6.20;3.40;;;13.70;1.00;;;;;;5097171;28;20937;-65
2022/10/25 05:34:29;;;;;;;6.97;3.87;;;13.70;1.00;;;;;;5097249;28;20460;-65
2022/10/25 05:36:58;;;;;;;13.37;3.53;;;13.70;1.00;;;;;;5096365;28;20901;-65
2022/10/25 05:39:25;;;;;;;9.57;3.13;;;13.70;1.00;;;;;;5096217;28;20445;-65
2022/10/25 05:41:56;;;;;;;7.40;4.03;;;13.80;1.00;;;;;;5097876;28;20205;-65
2022/10/25 05:44:42;;;;;;;8.33;3.67;;;13.70;99.90;;;;;;5094273;28;20936;-65
2022/10/25 05:47:17;;;;;;;7.50;3.60;;;13.70;1.00;;;;;;5094179;28;20926;-65
2022/10/25 05:49:44;;;;;;;6.50;3.47;;;13.70;1.00;;;;;;5090763;28;20444;-66
2022/10/25 05:52:12;;;;;;;6.77;3.80;;;13.70;1.00;;;;;;5092235;28;20503;-65
2022/10/25 05:54:39;;;;;;;6.17;4.20;;;13.70;1.00;;;;;;5090332;28;20457;-66
2022/10/25 05:57:06;;;;;;;7.00;3.60;;;13.70;1.00;;;;;;5094005;28;20852;-66
2022/10/25 05:59:34;;;;;;;5.90;3.33;;;13.60;1.00;;;;;;5091714;28;20573;-65
2022/10/25 06:02:01;;;;;;;6.93;3.83;;;13.60;1.00;;;;;;5094874;28;20480;-65
2022/10/25 06:04:30;;;;;;;6.57;3.40;;;13.60;1.00;;;;;;5094439;28;20490;-66
2022/10/25 06:06:57;;;;;;;7.10;4.27;;;13.60;1.00;;;;;;5094626;28;21037;-65
2022/10/25 06:09:27;;;;;;;7.57;3.43;;;13.70;1.00;;;;;;5095362;28;20539;-66
2022/10/25 06:11:54;;;;;;;10.30;4.70;;;13.60;1.00;;;;;;5093564;28;20455;-66
2022/10/25 06:14:21;;;;;;;6.30;3.60;;;13.60;1.00;;;;;;5095227;28;20471;-66
2022/10/25 06:16:52;;;;;;;13.37;4.33;;;13.70;1.00;;;;;;5095404;28;20456;-66
2022/10/25 06:19:19;;;;;;;7.33;3.90;;;13.70;1.00;;;;;;5094594;28;20456;-66
2022/10/25 06:21:48;;;;;;;11.63;3.80;;;13.60;1.00;;;;;;5096660;28;20780;-66
2022/10/25 06:24:15;;;;;;;5.63;3.70;;;13.60;1.00;;;;;;5096522;28;20487;-66
2022/10/25 06:26:45;;;;;;;9.57;3.93;;;13.60;1.00;;;;;;5097077;28;20946;-65
2022/10/25 06:29:13;;;;;;;11.47;4.00;;;13.60;1.00;;;;;;5097566;28;20902;-66
2022/10/25 06:31:43;;;;;;;7.00;3.40;;;13.60;15.50;;;;;;5097286;28;20464;-66
2022/10/25 06:34:11;;;;;;;10.37;3.90;;;13.60;77.80;;;;;;5097138;28;20460;-66
2022/10/25 06:36:38;;;;;;;7.20;4.30;;;13.60;98.60;;;;;;5096738;28;20460;-66
2022/10/25 06:39:06;;;;;;;8.53;4.33;;;13.60;99.90;;;;;;5096529;28;20461;-66
2022/10/25 06:41:35;;;;;;;6.90;4.43;;;13.60;99.90;;;;;;5096109;28;20471;-66
2022/10/25 06:44:02;;;;;;;7.07;4.03;;;13.60;99.90;;;;;;5094555;28;20531;-66
2022/10/25 06:46:31;;;;;;;8.53;4.37;;;13.60;38.80;;;;;;5095746;28;20456;-66
2022/10/25 06:49:03;;;;;;;8.60;4.03;;;13.60;1.00;;;;;;5095511;28;20438;-66
2022/10/25 06:51:34;;;;;;;7.53;4.10;;;13.60;1.00;;;;;;5096846;28;20533;-66
2022/10/25 06:54:04;;;;;;;6.13;3.93;;;13.60;1.00;;;;;;5095226;28;20885;-66
2022/10/25 06:56:35;;;;;;;12.23;4.23;;;13.70;1.00;;;;;;5098343;28;20868;-66
2022/10/25 06:59:03;;;;;;;9.77;4.33;;;13.70;1.00;;;;;;5098342;28;20463;-66
2022/10/25 07:01:30;;;;;;;9.87;3.93;;;13.60;1.00;;;;;;5097933;28;20452;-67
2022/10/25 07:03:58;;;;;;;8.27;3.70;;;13.70;1.00;;;;;;5096722;28;20466;-65
2022/10/25 07:06:34;;;;;;;9.67;4.33;;;13.70;1.00;;;;;;5097564;28;20482;-66
2022/10/25 07:09:02;;;;;;;5.27;3.83;;;13.60;1.00;;;;;;5098301;28;20488;-66
2022/10/25 07:11:31;;;;;;;12.27;5.00;;;13.70;1.00;;;;;;5097701;28;20943;-66
2022/10/25 07:14:02;;;;;;;11.37;4.03;;;13.70;1.00;;;;;;5097135;28;20466;-66
2022/10/25 07:16:29;;;;;;;11.47;4.70;;;13.70;1.00;;;;;;5096283;28;20456;-66
2022/10/25 07:19:02;;;;;;;5.90;3.73;;;13.70;1.00;;;;;;5097045;28;20467;-66
2022/10/25 07:21:30;;;;;;;8.80;4.03;;;13.70;1.00;;;;;;5096460;28;20902;-66
2022/10/25 07:23:58;;;;;;;7.90;4.80;;;13.70;1.00;;;;;;5096626;28;20463;-66
2022/10/25 07:26:26;;;;;;;9.53;4.67;;;13.70;1.00;;;;;;5095491;28;20469;-66
2022/10/25 07:28:56;;;;;;;7.30;3.60;;;13.70;1.00;;;;;;5096478;28;20461;-66
2022/10/25 07:31:26;;;;;;;16.17;4.40;;;13.70;1.00;;;;;;5092243;28;21150;-66
2022/10/25 07:33:54;;;;;;;5.90;3.70;;;13.80;1.00;;;;;;5093984;28;20452;-66
2022/10/25 07:36:21;;;;;;;9.67;4.30;;;13.80;1.00;;;;;;5091990;28;20461;-65
2022/10/25 07:38:52;;;;;;;7.10;3.50;;;13.90;1.00;;;;;;5095170;28;20462;-66
2022/10/25 07:41:19;;;;;;;4.97;3.70;;;13.90;1.00;;;;;;5094479;28;20551;-66
2022/10/25 07:43:47;;;;;;;7.03;3.57;;;14.00;1.00;;;;;;5094899;28;20882;-66
2022/10/25 07:46:21;;;;;;;11.50;4.03;;;14.00;99.90;;;;;;5085925;28;20493;-66
2022/10/25 07:48:51;;;;;;;7.43;3.73;;;14.00;99.90;;;;;;5096302;28;20561;-66
2022/10/25 07:51:21;;;;;;;6.70;3.70;;;14.10;99.90;;;;;;5096110;28;20519;-66
2022/10/25 07:53:48;;;;;;;7.47;3.93;;;14.30;99.90;;;;;;5096382;28;20543;-65
2022/10/25 07:56:18;;;;;;;5.10;3.30;;;14.30;99.90;;;;;;5096063;28;20492;-66
2022/10/25 07:58:48;;;;;;;4.93;3.30;;;14.10;99.90;;;;;;5097025;28;20815;-66
2022/10/25 08:01:20;;;;;;;9.37;4.80;;;14.10;99.90;;;;;;5096982;28;20460;-66
2022/10/25 08:03:49;;;;;;;5.63;4.40;;;14.10;99.90;;;;;;5097101;28;20521;-66
2022/10/25 08:06:16;;;;;;;6.57;4.07;;;14.10;99.90;;;;;;5096665;28;20492;-66
2022/10/25 08:08:44;;;;;;;10.07;4.30;;;14.10;99.90;;;;;;5096253;28;20476;-66
2022/10/25 08:11:12;;;;;;;7.47;4.07;;;14.10;99.90;;;;;;5096372;28;20964;-65
2022/10/25 08:13:43;;;;;;;7.43;4.20;;;14.10;99.90;;;;;;5096234;28;20725;-66
2022/10/25 08:16:13;;;;;;;8.23;3.73;;;14.20;99.90;;;;;;5095397;28;20541;-66
2022/10/25 08:18:42;;;;;;;6.73;4.57;;;14.10;99.90;;;;;;5095991;28;20467;-66
2022/10/25 08:21:10;;;;;;;8.30;4.90;;;14.20;99.90;;;;;;5096521;28;20459;-66
2022/10/25 08:23:40;;;;;;;9.97;5.40;;;14.20;99.90;;;;;;5096595;28;20456;-66
2022/10/25 08:26:07;;;;;;;9.70;3.80;;;14.10;99.90;;;;;;5095627;28;20492;-65
2022/10/25 08:28:34;;;;;;;7.17;4.30;;;14.30;99.90;;;;;;5097233;28;20750;-66
2022/10/25 08:31:03;;;;;;;8.23;4.73;;;14.40;59.30;;;;;;5095104;28;20469;-66
2022/10/25 08:33:30;;;;;;;8.63;4.37;;;14.40;34.10;;;;;;5096974;28;20467;-66
2022/10/25 08:36:00;;;;;;;5.10;3.50;;;14.40;12.10;;;;;;5095809;28;20465;-65
2022/10/25 08:38:32;;;;;;;5.97;3.30;;;14.50;1.00;;;;;;5097077;28;20435;-67
2022/10/25 08:41:08;;;;;;;10.00;3.23;;;14.70;1.00;;;;;;5097066;28;20513;-66
2022/10/25 08:43:56;;;;;;;7.90;3.73;;;14.80;1.00;;;;;;5097420;28;20495;-66
2022/10/25 08:46:27;;;;;;;6.90;4.17;;;15.00;1.00;;;;;;5096988;28;20488;-66
2022/10/25 08:49:08;;;;;;;5.80;3.63;;;15.10;1.00;;;;;;5097850;28;20472;-66
2022/10/25 08:51:39;;;;;;;10.93;3.77;;;15.20;1.00;;;;;;5095574;28;20464;-65
2022/10/25 08:54:26;;;;;;;7.73;4.03;;;15.30;1.00;;;;;;5093348;28;20796;-65
2022/10/25 08:57:08;;;;;;;9.90;3.47;;;15.40;1.00;;;;;;5091626;28;20551;-65
2022/10/25 08:59:40;;;;;;;7.40;3.37;;;15.40;1.00;;;;;;5098606;28;20517;-65
2022/10/25 09:02:16;;;;;;;9.50;3.73;;;15.50;1.00;;;;;;5097790;28;20772;-65
2022/10/25 09:04:43;;;;;;;11.60;3.73;;;15.40;1.00;;;;;;5094719;28;20488;-64
2022/10/25 09:07:25;;;;;;;8.80;4.17;;;15.40;1.00;;;;;;5097866;28;20504;-65
2022/10/25 09:10:07;;;;;;;4.90;3.40;;;15.40;1.00;;;;;;5097162;28;20745;-65
2022/10/25 09:12:42;;;;;;;7.70;3.93;;;15.30;1.00;;;;;;5098441;28;20472;-65
2022/10/25 09:15:22;;;;;;;7.43;3.67;;;15.30;1.00;;;;;;5096651;28;20452;-64
2022/10/25 09:17:52;;;;;;;9.23;3.70;;;15.50;1.00;;;;;;5098326;28;20460;-64
2022/10/25 09:20:21;;;;;;;7.57;3.77;;;15.70;1.00;;;;;;5098202;28;20466;-64
2022/10/25 09:22:59;;;;;;;8.43;3.60;;;16.00;1.00;;;;;;5098104;28;20460;-64
2022/10/25 09:25:42;;;;;;;4.33;3.63;;;16.30;1.00;;;;;;5095168;28;20480;-65
2022/10/25 09:28:15;;;;;;;8.50;4.57;;;16.40;1.00;;;;;;5095766;28;20517;-65
2022/10/25 09:30:55;;;;;;;8.93;3.17;;;17.00;1.00;;;;;;5097670;28;20464;-65
2022/10/25 09:33:29;;;;;;;6.63;3.50;;;17.20;1.00;;;;;;5097557;28;20550;-64
2022/10/25 09:35:58;;;;;;;7.10;3.93;;;17.00;1.00;;;;;;5098573;28;20509;-64
2022/10/25 09:38:32;;;;;;;7.13;3.70;;;16.90;1.00;;;;;;5094716;28;20500;-64
2022/10/25 09:41:05;;;;;;;7.73;3.40;;;16.80;1.00;;;;;;5097867;28;20456;-64
2022/10/25 09:43:41;;;;;;;7.47;3.77;;;16.50;1.00;;;;;;5096486;28;20458;-64
2022/10/25 09:46:14;;;;;;;9.20;4.47;;;16.30;1.00;;;;;;5096110;28;20519;-64
2022/10/25 09:48:48;;;;;;;10.20;5.10;;;16.20;1.00;;;;;;5098205;28;20471;-64
2022/10/25 09:51:24;;;;;;;4.73;3.40;;;15.80;1.00;;;;;;5095292;28;20463;-64
2022/10/25 09:53:53;;;;;;;6.33;3.63;;;15.70;1.00;;;;;;5097817;28;20919;-64
2022/10/25 09:56:23;;;;;;;7.23;3.70;;;15.70;1.00;;;;;;5096449;28;20461;-64
2022/10/25 09:58:51;;;;;;;9.50;3.80;;;15.70;1.00;;;;;;5096952;28;20474;-64
2022/10/25 10:01:22;;;;;;;6.93;4.13;;;15.60;1.00;;;;;;5098057;28;20457;-64
2022/10/25 10:03:52;;;;;;;5.70;3.47;;;15.80;1.00;;;;;;5097655;28;20449;-64
2022/10/25 10:06:24;;;;;;;8.50;4.30;;;15.90;1.00;;;;;;5097617;28;20486;-64
2022/10/25 10:08:53;;;;;;;8.23;3.80;;;16.00;1.00;;;;;;5097013;28;20480;-64
2022/10/25 10:11:23;;;;;;;5.50;3.63;;;16.30;1.00;;;;;;5097675;28;20467;-63
2022/10/25 10:13:54;;;;;;;4.53;3.10;;;16.20;1.00;;;;;;5098595;28;20465;-64
2022/10/25 10:16:30;;;;;;;5.77;3.73;;;16.20;1.00;;;;;;5099138;28;20453;-63
2022/10/25 10:19:18;;;;;;;5.47;3.80;;;16.40;1.00;;;;;;5098751;28;20558;-64
2022/10/25 10:21:48;;;;;;;5.17;3.80;;;16.50;1.00;;;;;;5098630;28;20488;-64
2022/10/25 10:24:19;;;;;;;4.80;4.30;;;16.60;1.00;;;;;;5098226;28;20549;-63
2022/10/25 10:26:53;;;;;;;4.73;3.60;;;16.50;1.00;;;;;;5097976;28;20514;-64
2022/10/25 10:29:22;;;;;;;6.30;4.30;;;16.70;1.00;;;;;;5098376;28;20471;-63
2022/10/25 10:31:52;;;;;;;5.43;3.30;;;16.70;1.00;;;;;;5098162;28;20526;-63
2022/10/25 10:34:29;;;;;;;6.20;3.40;;;16.70;1.00;;;;;;5098491;28;20459;-63
2022/10/25 10:37:15;;;;;;;9.60;4.33;;;16.50;1.00;;;;;;5098527;28;20957;-63
2022/10/25 10:39:51;;;;;;;5.70;3.50;;;16.80;1.00;;;;;;5097729;28;20494;-63
2022/10/25 10:42:25;;;;;;;7.50;3.60;;;17.20;1.00;;;;;;5097263;28;20460;-63
2022/10/25 10:45:14;;;;;;;8.23;4.13;;;17.60;99.90;;;;;;5097927;28;20810;-63
2022/10/25 10:47:46;;;;;;;6.30;2.87;;;17.60;99.90;;;;;;5098083;28;20463;-63
2022/10/25 10:50:24;;;;;;;4.20;2.60;;;17.60;99.90;;;;;;5098240;28;20831;-63
2022/10/25 10:52:57;;;;;;;4.57;2.50;;;17.40;99.90;;;;;;5095674;28;20465;-63
2022/10/25 10:55:29;;;;;;;7.23;2.90;;;17.00;99.90;;;;;;5096122;28;20456;-62
2022/10/25 10:58:04;;;;;;;4.40;2.53;;;16.80;99.90;;;;;;5097258;28;20510;-62
2022/10/25 11:00:32;;;;;;;6.20;3.13;;;17.00;99.90;;;;;;5092927;28;20516;-62
2022/10/25 11:09:04;;;;;;;3.80;3.03;;;16.40;99.90;;;;;;5069309;28;20486;-62
2022/10/25 11:11:31;;;;;;;4.63;2.47;;;16.40;99.90;;;;;;5070000;28;20295;-62
2022/10/25 11:14:02;;;;;;;4.60;2.57;;;16.70;99.90;;;;;;5067476;28;20465;-62
2022/10/25 11:16:42;;;;;;;5.00;2.50;;;17.10;99.90;;;;;;5077623;28;20457;-63
2022/10/25 11:19:27;;;;;;;4.77;2.67;;;17.30;99.90;;;;;;5077439;28;20471;-63
2022/10/25 11:22:11;;;;;;;6.00;3.63;;;17.60;99.90;;;;;;5077185;28;20520;-63
2022/10/25 11:24:54;;;;;;;4.70;2.40;;;17.50;99.90;;;;;;5076878;28;20467;-64
2022/10/25 11:27:30;;;;;;;4.73;2.57;;;17.80;99.90;;;;;;5077011;28;20546;-61
2022/10/25 11:30:10;;;;;;;5.03;2.40;;;17.80;99.90;;;;;;5077100;28;20487;-62
2022/10/25 11:33:02;;;;;;;6.83;3.80;;;17.80;99.90;;;;;;5076912;28;20465;-61
2022/10/25 11:35:50;;;;;;;9.47;2.50;;;17.90;99.90;;;;;;5066610;28;20466;-61
2022/10/25 11:38:25;;;;;;;6.20;3.60;;;17.70;99.90;;;;;;5066431;28;20469;-61
2022/10/25 11:40:59;;;;;;;7.20;3.57;;;17.60;99.90;;;;;;5076292;28;20467;-61
2022/10/25 11:43:45;;;;;;;5.53;3.00;;;17.40;99.90;;;;;;5076439;28;20844;-61
2022/10/25 11:46:21;;;;;;;4.40;3.50;;;17.60;99.90;;;;;;5075706;28;20495;-61
2022/10/25 11:49:07;;;;;;;6.30;3.10;;;18.30;99.90;;;;;;5076316;28;20750;-60
2022/10/25 11:51:46;;;;;;;4.17;3.30;;;19.10;99.90;;;;;;5074095;28;20461;-62
2022/10/25 11:54:23;;;;;;;6.60;4.13;;;19.80;99.90;;;;;;5075402;28;20449;-62
2022/10/25 11:57:01;;;;;;;7.37;3.80;;;20.00;99.90;;;;;;5073412;28;20449;-61
2022/10/25 11:59:38;;;;;;;10.00;4.00;;;19.60;99.90;;;;;;5076184;28;20461;-61
2022/10/25 12:02:26;;;;;;;3.30;3.00;;;19.10;99.90;;;;;;5076859;28;20457;-61
2022/10/25 12:05:11;;;;;;;6.73;4.10;;;18.30;99.90;;;;;;5075137;28;20495;-61
2022/10/25 12:07:45;;;;;;;6.87;3.63;;;18.10;99.90;;;;;;5073713;28;20485;-61
2022/10/25 12:10:35;;;;;;;8.00;3.57;;;17.80;99.90;;;;;;5073545;28;20797;-61
2022/10/25 12:13:13;;;;;;;9.70;4.23;;;17.60;99.90;;;;;;5074523;28;20457;-62
2022/10/25 12:15:42;;;;;;;6.07;4.00;;;17.40;99.90;;;;;;5075169;28;20457;-60
2022/10/25 12:18:16;;;;;;;6.60;3.63;;;17.10;99.90;;;;;;5073428;28;20456;-61
2022/10/25 12:20:49;;;;;;;6.37;3.70;;;16.90;99.90;;;;;;5074711;28;20760;-61
2022/10/25 12:23:20;;;;;;;5.10;3.70;;;16.70;99.90;;;;;;5075111;28;20514;-61
2022/10/25 12:25:58;;;;;;;6.80;3.57;;;16.60;99.90;;;;;;5073873;28;20773;-61
2022/10/25 12:28:30;;;;;;;4.17;3.30;;;16.50;99.90;;;;;;5074830;28;20465;-61
2022/10/25 12:31:01;;;;;;;8.00;4.20;;;16.60;99.90;;;;;;5074015;28;20454;-61
2022/10/25 12:33:36;;;;;;;8.53;3.70;;;16.80;99.90;;;;;;5072487;28;20544;-61
2022/10/25 12:36:12;;;;;;;7.93;3.87;;;16.80;99.90;;;;;;5075436;28;20452;-61
2022/10/25 12:38:44;;;;;;;6.47;3.40;;;16.90;99.90;;;;;;5075500;28;20543;-61
2022/10/25 12:41:19;;;;;;;5.77;3.20;;;16.90;99.90;;;;;;5073224;28;20459;-61
2022/10/25 12:43:59;;;;;;;10.13;3.60;;;16.90;99.90;;;;;;5074262;28;20772;-60
2022/10/25 12:46:55;;;;;;;11.70;4.00;;;16.90;99.90;;;;;;5068949;28;20495;-60
2022/10/25 12:50:03;;;;;;;5.53;3.43;;;16.80;99.90;;;;;;5070459;28;20496;-61
2022/10/25 12:52:34;;;;;;;5.33;3.53;;;16.90;99.90;;;;;;5068206;28;20461;-61
2022/10/25 12:55:37;;;;;;;7.37;3.40;;;16.90;99.90;;;;;;5074093;28;20461;-61
2022/10/25 12:58:23;;;;;;;7.47;3.20;;;17.10;99.90;;;;;;5070269;28;20464;-61
2022/10/25 13:01:07;;;;;;;4.80;3.40;;;17.20;99.90;;;;;;5058014;28;20465;-61
2022/10/25 13:03:56;;;;;;;3.90;3.33;;;17.40;99.90;;;;;;5074818;28;20485;-61
2022/10/25 13:06:34;;;;;;;6.20;4.00;;;17.40;99.90;;;;;;5075395;28;20492;-60
2022/10/25 13:09:05;;;;;;;7.33;3.00;;;17.50;99.90;;;;;;5075746;28;20515;-61
2022/10/25 13:11:35;;;;;;;5.80;3.50;;;17.40;99.90;;;;;;5073996;28;20904;-61
2022/10/25 13:14:05;;;;;;;8.00;2.83;;;17.40;99.90;;;;;;5075743;28;20731;-61
2022/10/25 13:16:38;;;;;;;5.00;3.17;;;17.20;99.90;;;;;;5073259;28;20476;-61
2022/10/25 13:19:21;;;;;;;5.73;2.97;;;17.30;99.90;;;;;;5074119;28;20461;-60
2022/10/25 13:22:39;;;;;;;5.40;2.97;;;17.50;99.90;;;;;;5069806;28;20465;-60